Time;durP1;ratioP1;P1;durP2;ratioP2;P2;SDS_P1;SDS_P2;PMS_P1;PMS_P2;Temp;Humidity;BMP_temperature;BMP_pressure;BME280_temperature;BME280_humidity;BME280_pressure;Samples;Min_cycle;Max_cycle;Signal;HPM_P1;HPM_P2
2021/09/11 00:01:11;;;;;;;1999.90;999.90;;;20.00;99.90;;;;;;5016131;28;20491;-87
2021/09/11 00:03:37;;;;;;;1999.90;999.90;;;20.00;99.90;;;;;;4977952;28;20450;-87
2021/09/11 00:06:13;;;;;;;1999.90;999.90;;;20.10;99.90;;;;;;4976707;28;20934;-87
2021/09/11 00:08:53;;;;;;;1999.90;999.90;;;20.10;99.90;;;;;;4961487;28;20156;-88
2021/09/11 00:11:19;;;;;;;1999.90;999.90;;;20.00;99.90;;;;;;4985289;28;20408;-87
2021/09/11 00:13:59;;;;;;;1999.90;999.90;;;20.00;99.90;;;;;;5036612;28;20835;-87
2021/09/11 00:16:25;;;;;;;1999.90;999.90;;;20.00;99.90;;;;;;5039713;28;20436;-87
2021/09/11 00:18:57;;;;;;;1999.90;999.90;;;20.00;99.90;;;;;;5038076;28;20415;-87
2021/09/11 00:21:23;;;;;;;1999.90;999.90;;;20.00;99.90;;;;;;5035928;28;20406;-87
2021/09/11 00:23:55;;;;;;;1999.90;999.90;;;19.90;99.90;;;;;;5035498;28;20423;-87
2021/09/11 00:26:21;;;;;;;1999.90;999.90;;;19.90;99.90;;;;;;5034960;28;20787;-87
2021/09/11 00:28:47;;;;;;;1999.90;999.90;;;19.90;99.90;;;;;;5034729;28;20517;-87
2021/09/11 00:31:15;;;;;;;1999.90;999.90;;;19.90;99.90;;;;;;5035801;28;20495;-87
2021/09/11 00:33:44;;;;;;;1999.90;999.90;;;19.80;99.90;;;;;;5039134;28;20175;-87
2021/09/11 00:36:49;;;;;;;1999.90;999.90;;;19.80;99.90;;;;;;5039537;28;20432;-87
2021/09/11 00:39:15;;;;;;;1999.90;999.90;;;19.80;99.90;;;;;;5037012;28;20980;-87
2021/09/11 00:41:44;;;;;;;1999.90;999.90;;;19.70;99.90;;;;;;5036798;28;20930;-87
2021/09/11 00:44:13;;;;;;;1999.90;999.90;;;19.70;99.90;;;;;;5037869;28;20951;-87
2021/09/11 00:46:42;;;;;;;1999.90;999.90;;;19.70;99.90;;;;;;5035151;28;20481;-86
2021/09/11 00:49:08;;;;;;;1999.90;999.90;;;19.70;99.90;;;;;;5036464;28;20409;-88
2021/09/11 00:51:34;;;;;;;1999.90;999.90;;;19.80;99.90;;;;;;5038449;28;20460;-87
2021/09/11 00:54:01;;;;;;;1999.90;999.90;;;19.70;99.90;;;;;;5034877;28;20846;-87
2021/09/11 00:56:29;;;;;;;1999.90;999.90;;;19.70;99.90;;;;;;5035364;28;20517;-86
2021/09/11 00:58:55;;;;;;;1999.90;999.90;;;19.70;99.90;;;;;;5035231;28;20413;-87
2021/09/11 01:01:30;;;;;;;1999.90;999.90;;;19.70;99.90;;;;;;5036269;28;20405;-87
2021/09/11 01:03:56;;;;;;;1999.90;999.90;;;19.70;99.90;;;;;;5034002;28;20408;-86
2021/09/11 01:06:34;;;;;;;1999.90;999.90;;;19.70;99.90;;;;;;5035423;28;20427;-87
2021/09/11 01:09:01;;;;;;;1999.90;999.90;;;19.70;99.90;;;;;;5040153;28;20443;-86
2021/09/11 01:11:27;;;;;;;1999.90;999.90;;;19.70;99.90;;;;;;5033805;28;20404;-85
2021/09/11 01:14:26;;;;;;;1999.90;999.90;;;19.70;99.90;;;;;;5038557;28;20545;-87
2021/09/11 01:16:54;;;;;;;1999.90;999.90;;;19.70;99.90;;;;;;5034226;28;20511;-86
2021/09/11 01:19:20;;;;;;;1999.90;999.90;;;19.70;99.90;;;;;;5035667;28;20815;-87
2021/09/11 01:21:46;;;;;;;1999.90;999.90;;;19.70;99.90;;;;;;5035949;28;20396;-87
2021/09/11 01:24:14;;;;;;;1999.90;999.90;;;19.70;99.90;;;;;;5036171;28;20175;-87
2021/09/11 01:26:40;;;;;;;1999.90;999.90;;;19.70;99.90;;;;;;5032997;28;20449;-86
2021/09/11 01:29:12;;;;;;;1999.90;999.90;;;19.70;99.90;;;;;;5033888;28;20416;-86
2021/09/11 01:31:41;;;;;;;1999.90;999.90;;;19.70;99.90;;;;;;5033681;28;20170;-86
2021/09/11 01:34:07;;;;;;;1999.90;999.90;;;19.70;99.90;;;;;;5033653;28;20443;-87
2021/09/11 01:36:33;;;;;;;1999.90;999.90;;;19.70;99.90;;;;;;5037299;28;20482;-87
2021/09/11 01:38:59;;;;;;;1999.90;999.90;;;19.70;99.90;;;;;;5034452;28;20191;-86
2021/09/11 01:41:25;;;;;;;1999.90;999.90;;;19.70;99.90;;;;;;5037892;28;20433;-88
2021/09/11 01:43:51;;;;;;;1999.90;999.90;;;19.60;99.90;;;;;;5035842;28;20159;-87
2021/09/11 01:46:23;;;;;;;1999.90;999.90;;;19.60;99.90;;;;;;5034982;28;20790;-88
2021/09/11 01:48:49;;;;;;;1999.90;999.90;;;19.60;99.90;;;;;;5035171;28;20178;-88
2021/09/11 01:51:17;;;;;;;1999.90;999.90;;;19.50;99.90;;;;;;5037460;28;20404;-87
2021/09/11 01:53:53;;;;;;;1999.90;999.90;;;19.50;99.90;;;;;;5039639;28;20624;-88
2021/09/11 01:56:21;;;;;;;1999.90;999.90;;;19.40;99.90;;;;;;5034341;28;20843;-88
2021/09/11 01:59:01;;;;;;;1999.90;999.90;;;19.50;99.90;;;;;;5034384;28;20401;-88
2021/09/11 02:01:26;;;;;;;1999.90;999.90;;;19.40;99.90;;;;;;5035376;28;20758;-87
2021/09/11 02:03:52;;;;;;;1999.90;999.90;;;19.40;99.90;;;;;;5037968;28;20402;-87
2021/09/11 02:06:21;;;;;;;1999.90;999.90;;;19.40;99.90;;;;;;5033792;28;20224;-86
2021/09/11 02:08:49;;;;;;;1999.90;999.90;;;19.40;99.90;;;;;;5036446;28;20447;-88
2021/09/11 02:11:18;;;;;;;1999.90;999.90;;;19.30;99.90;;;;;;5035455;28;20498;-87
2021/09/11 02:13:44;;;;;;;1999.90;999.90;;;19.30;99.90;;;;;;5033087;28;20932;-86
2021/09/11 02:16:10;;;;;;;1999.90;999.90;;;19.30;99.90;;;;;;5035215;28;20512;-88
2021/09/11 02:18:36;;;;;;;1999.90;999.90;;;19.30;99.90;;;;;;5033867;28;20481;-87
2021/09/11 02:21:02;;;;;;;1999.90;999.90;;;19.30;99.90;;;;;;5035533;28;20426;-88
2021/09/11 02:23:31;;;;;;;1999.90;999.90;;;19.30;99.90;;;;;;5035740;28;20400;-87
2021/09/11 02:26:00;;;;;;;1999.90;999.90;;;19.40;99.90;;;;;;5036152;28;20405;-87
2021/09/11 02:28:26;;;;;;;1999.90;999.90;;;19.30;99.90;;;;;;5034873;28;20459;-88
2021/09/11 02:30:54;;;;;;;1999.90;999.90;;;19.30;99.90;;;;;;5034710;28;20428;-87
2021/09/11 02:33:20;;;;;;;1999.90;999.90;;;19.30;99.90;;;;;;5034459;28;20844;-87
2021/09/11 02:38:27;;;;;;;1999.90;999.90;;;19.30;99.90;;;;;;5016471;28;20210;-87
2021/09/11 02:40:53;;;;;;;1999.90;999.90;;;19.30;99.90;;;;;;5014976;28;20460;-87
2021/09/11 02:43:18;;;;;;;1999.90;999.90;;;19.30;99.90;;;;;;5159896;23;20476;-87
2021/09/11 02:45:44;;;;;;;1999.90;999.90;;;19.30;99.90;;;;;;5149861;23;20212;-87
2021/09/11 02:48:10;;;;;;;1999.90;999.90;;;19.30;99.90;;;;;;5148029;23;20685;-86
2021/09/11 02:50:36;;;;;;;1999.90;999.90;;;19.30;99.90;;;;;;5072323;28;20693;-86
2021/09/11 02:53:04;;;;;;;1999.90;999.90;;;19.30;99.90;;;;;;5072028;28;20164;-86
2021/09/11 02:55:30;;;;;;;1999.90;999.90;;;19.30;99.90;;;;;;5074116;28;20267;-87
2021/09/11 02:57:56;;;;;;;1999.90;999.90;;;19.40;99.90;;;;;;5072962;28;20980;-86
2021/09/11 03:00:22;;;;;;;1999.90;999.90;;;19.30;99.90;;;;;;5074205;28;20246;-86
2021/09/11 03:02:47;;;;;;;1999.90;999.90;;;19.30;99.90;;;;;;5073361;28;20260;-86
2021/09/11 03:05:13;;;;;;;1999.90;999.90;;;19.40;99.90;;;;;;5077220;28;20222;-86
2021/09/11 03:07:39;;;;;;;1999.90;999.90;;;19.40;99.90;;;;;;5073484;28;20551;-86
2021/09/11 03:10:05;;;;;;;1999.90;999.90;;;19.40;99.90;;;;;;5073839;28;20632;-86
2021/09/11 03:12:32;;;;;;;1999.90;999.90;;;19.40;99.90;;;;;;5074891;28;20258;-86
2021/09/11 03:14:58;;;;;;;1999.90;999.90;;;19.40;99.90;;;;;;5072085;28;20447;-86
2021/09/11 03:17:25;;;;;;;1999.90;999.90;;;19.40;99.90;;;;;;5074765;28;20591;-86
2021/09/11 03:19:51;;;;;;;1999.90;999.90;;;19.40;99.90;;;;;;5077729;28;20515;-86
2021/09/11 03:22:20;;;;;;;1999.90;999.90;;;19.40;99.90;;;;;;5076643;28;20399;-87
2021/09/11 03:24:45;;;;;;;1999.90;999.90;;;19.40;99.90;;;;;;5076190;28;20543;-86
2021/09/11 03:27:11;;;;;;;1999.90;999.90;;;19.40;99.90;;;;;;5076604;28;20426;-86
2021/09/11 03:29:37;;;;;;;1999.90;999.90;;;19.40;99.90;;;;;;5076605;28;20164;-87
2021/09/11 03:32:04;;;;;;;1999.90;999.90;;;19.40;99.90;;;;;;5081027;28;20171;-86
2021/09/11 03:34:30;;;;;;;1999.90;999.90;;;19.40;99.90;;;;;;5076129;28;20224;-87
2021/09/11 03:36:56;;;;;;;1999.90;999.90;;;19.40;99.90;;;;;;5077013;28;20426;-86
2021/09/11 03:39:22;;;;;;;1999.90;999.90;;;19.40;99.90;;;;;;5079062;28;20160;-86
2021/09/11 03:41:51;;;;;;;1999.90;999.90;;;19.40;99.90;;;;;;5076222;28;20425;-86
2021/09/11 03:44:42;;;;;;;1999.90;999.90;;;19.30;99.90;;;;;;5075045;28;20410;-87
2021/09/11 03:47:08;;;;;;;1999.90;999.90;;;19.30;99.90;;;;;;5142113;23;20477;-83
2021/09/11 03:49:34;;;;;;;1999.90;999.90;;;19.20;99.90;;;;;;5075750;28;20495;-83
2021/09/11 03:51:59;;;;;;;1999.90;999.90;;;19.20;99.90;;;;;;5075662;28;20196;-83
2021/09/11 03:54:25;;;;;;;1999.90;999.90;;;19.20;99.90;;;;;;5074227;28;20567;-84
2021/09/11 03:56:51;;;;;;;1999.90;999.90;;;19.30;99.90;;;;;;5075424;28;20701;-83
2021/09/11 03:59:16;;;;;;;1999.90;999.90;;;19.30;99.90;;;;;;5074231;28;20179;-83
2021/09/11 04:01:42;;;;;;;1999.90;999.90;;;19.30;99.90;;;;;;5075824;28;20497;-83
2021/09/11 04:04:08;;;;;;;1999.90;999.90;;;19.30;99.90;;;;;;5074216;28;20651;-83
2021/09/11 04:06:33;;;;;;;1999.90;999.90;;;19.20;99.90;;;;;;5075550;28;20237;-84
2021/09/11 04:08:59;;;;;;;1999.90;999.90;;;19.30;99.90;;;;;;5075282;28;20226;-84
2021/09/11 04:11:24;;;;;;;1999.90;999.90;;;19.30;99.90;;;;;;5075577;28;20247;-84
2021/09/11 04:13:50;;;;;;;1999.90;999.90;;;19.30;99.90;;;;;;5075473;28;20195;-84
2021/09/11 04:16:16;;;;;;;1999.90;999.90;;;19.40;99.90;;;;;;5074098;28;20188;-84
2021/09/11 04:18:41;;;;;;;1999.90;999.90;;;19.40;99.90;;;;;;5075133;28;20160;-84
2021/09/11 04:21:08;;;;;;;1999.90;999.90;;;19.40;99.90;;;;;;5074057;28;20247;-84
2021/09/11 04:23:34;;;;;;;1999.90;999.90;;;19.40;99.90;;;;;;5073727;28;20255;-84
2021/09/11 04:25:59;;;;;;;1999.90;999.90;;;19.40;99.90;;;;;;5075197;28;20980;-83
2021/09/11 04:28:25;;;;;;;1999.90;999.90;;;19.40;99.90;;;;;;5072776;28;20171;-84
2021/09/11 04:30:51;;;;;;;1999.90;999.90;;;19.30;99.90;;;;;;5075145;28;20213;-84
2021/09/11 04:33:16;;;;;;;1999.90;999.90;;;19.30;99.90;;;;;;5073505;28;20176;-83
2021/09/11 04:35:42;;;;;;;1999.90;999.90;;;19.30;99.90;;;;;;5073271;28;20311;-83
2021/09/11 04:38:08;;;;;;;1999.90;999.90;;;19.30;99.90;;;;;;5073433;28;20527;-83
2021/09/11 04:40:33;;;;;;;1999.90;999.90;;;19.30;99.90;;;;;;5074956;28;20239;-83
2021/09/11 04:42:59;;;;;;;1999.90;999.90;;;19.30;99.90;;;;;;5075359;28;20290;-83
2021/09/11 04:45:25;;;;;;;1999.90;999.90;;;19.20;99.90;;;;;;5074583;28;20164;-83
2021/09/11 04:47:51;;;;;;;1999.90;999.90;;;19.20;99.90;;;;;;5073158;28;20201;-83
2021/09/11 04:50:18;;;;;;;1999.90;999.90;;;19.10;99.90;;;;;;5074371;28;20421;-83
2021/09/11 04:52:44;;;;;;;1999.90;999.90;;;19.20;99.90;;;;;;5073197;28;20508;-83
2021/09/11 04:55:10;;;;;;;1999.90;999.90;;;19.10;99.90;;;;;;5074336;28;20447;-83
2021/09/11 04:57:36;;;;;;;1999.90;999.90;;;19.10;99.90;;;;;;5073433;28;20434;-83
2021/09/11 05:00:04;;;;;;;1999.90;999.90;;;19.10;99.90;;;;;;5072971;28;20493;-83
2021/09/11 05:02:29;;;;;;;1999.90;999.90;;;19.10;99.90;;;;;;5074511;28;20450;-83
2021/09/11 05:04:55;;;;;;;1999.90;999.90;;;19.10;99.90;;;;;;5074211;28;20402;-83
2021/09/11 05:07:21;;;;;;;1999.90;999.90;;;19.10;99.90;;;;;;5073198;28;20188;-83
2021/09/11 05:09:47;;;;;;;1999.90;999.90;;;19.10;99.90;;;;;;5074048;28;20207;-84
2021/09/11 05:12:12;;;;;;;1999.90;999.90;;;19.10;99.90;;;;;;5074182;28;20399;-83
2021/09/11 05:14:38;;;;;;;1999.90;999.90;;;19.20;99.90;;;;;;5073895;28;20192;-84
2021/09/11 05:17:04;;;;;;;1999.90;999.90;;;19.10;99.90;;;;;;5074240;28;20180;-83
2021/09/11 05:19:30;;;;;;;1999.90;999.90;;;19.10;99.90;;;;;;5074041;28;20647;-83
2021/09/11 05:21:56;;;;;;;1999.90;999.90;;;19.10;99.90;;;;;;5073851;28;20398;-83
2021/09/11 05:24:22;;;;;;;1999.90;999.90;;;19.00;99.90;;;;;;5073945;28;20171;-83
2021/09/11 05:26:47;;;;;;;1999.90;999.90;;;19.10;99.90;;;;;;5072403;28;20187;-83
2021/09/11 05:29:13;;;;;;;1999.90;999.90;;;19.10;99.90;;;;;;5073684;28;20485;-83
2021/09/11 05:31:39;;;;;;;1999.90;999.90;;;19.20;99.90;;;;;;5073923;28;20164;-84
2021/09/11 05:34:05;;;;;;;1999.90;999.90;;;19.10;99.90;;;;;;5072748;28;20196;-84
2021/09/11 05:36:34;;;;;;;1999.90;999.90;;;19.10;99.90;;;;;;5073663;28;20180;-83
2021/09/11 05:39:00;;;;;;;1999.90;999.90;;;19.20;99.90;;;;;;5073725;28;20771;-83
2021/09/11 05:41:26;;;;;;;1999.90;999.90;;;19.20;99.90;;;;;;5072474;28;20403;-83
2021/09/11 05:43:52;;;;;;;1999.90;999.90;;;19.10;99.90;;;;;;5073810;28;20409;-83
2021/09/11 05:46:18;;;;;;;1999.90;999.90;;;19.10;99.90;;;;;;5072800;28;20199;-83
2021/09/11 05:48:44;;;;;;;1999.90;999.90;;;19.10;99.90;;;;;;5073769;28;20156;-83
2021/09/11 05:51:12;;;;;;;1999.90;999.90;;;19.10;99.90;;;;;;5073778;28;20452;-83
2021/09/11 05:53:38;;;;;;;1999.90;999.90;;;19.10;99.90;;;;;;5072363;28;20221;-84
2021/09/11 05:56:04;;;;;;;1999.90;999.90;;;19.10;99.90;;;;;;5073602;28;20446;-83
2021/09/11 05:58:29;;;;;;;1999.90;999.90;;;19.10;99.90;;;;;;5072664;28;20161;-83
2021/09/11 06:00:56;;;;;;;1999.90;999.90;;;19.10;99.90;;;;;;5073858;28;20166;-83
2021/09/11 06:03:21;;;;;;;1999.90;999.90;;;19.10;99.90;;;;;;5073718;28;20505;-83
2021/09/11 06:05:47;;;;;;;1999.90;999.90;;;19.00;99.90;;;;;;5073830;28;20405;-83
2021/09/11 06:08:13;;;;;;;1999.90;999.90;;;19.00;99.90;;;;;;5072618;28;20178;-83
2021/09/11 06:10:39;;;;;;;1999.90;999.90;;;19.00;99.90;;;;;;5072179;28;20481;-83
2021/09/11 06:13:05;;;;;;;1999.90;999.90;;;19.10;99.90;;;;;;5072143;28;20221;-84
2021/09/11 06:15:31;;;;;;;1999.90;999.90;;;19.20;99.90;;;;;;5073229;28;20441;-83
2021/09/11 06:17:56;;;;;;;1999.90;999.90;;;19.20;99.90;;;;;;5073227;28;20202;-83
2021/09/11 06:20:22;;;;;;;1999.90;999.90;;;19.20;99.90;;;;;;5073653;28;20519;-84
2021/09/11 06:22:48;;;;;;;1999.90;999.90;;;19.20;99.90;;;;;;5073660;28;20168;-83
2021/09/11 06:25:14;;;;;;;1999.90;999.90;;;19.20;99.90;;;;;;5072209;28;20179;-83
2021/09/11 06:27:40;;;;;;;1999.90;999.90;;;19.20;99.90;;;;;;5072070;28;20275;-83
2021/09/11 06:30:11;;;;;;;1999.90;999.90;;;19.20;99.90;;;;;;5072404;28;20442;-83
2021/09/11 06:32:37;;;;;;;1999.90;999.90;;;19.20;99.90;;;;;;5075558;28;20379;-84
2021/09/11 06:35:07;;;;;;;1999.90;999.90;;;19.20;99.90;;;;;;5074560;28;20794;-83
2021/09/11 06:37:33;;;;;;;1999.90;999.90;;;19.20;99.90;;;;;;5075064;28;20423;-83
2021/09/11 06:40:00;;;;;;;1999.90;999.90;;;19.20;99.90;;;;;;5073316;28;20390;-83
2021/09/11 06:42:25;;;;;;;1999.90;999.90;;;19.20;99.90;;;;;;5072764;28;20410;-83
2021/09/11 06:44:51;;;;;;;1999.90;999.90;;;19.30;99.90;;;;;;5073875;28;20402;-84
2021/09/11 06:47:17;;;;;;;1999.90;999.90;;;19.40;99.90;;;;;;5071586;28;20349;-84
2021/09/11 06:49:43;;;;;;;1999.90;999.90;;;19.50;99.90;;;;;;5072536;28;20544;-84
2021/09/11 06:52:09;;;;;;;1999.90;999.90;;;19.60;99.90;;;;;;5076384;28;20690;-84
2021/09/11 06:54:36;;;;;;;1999.90;999.90;;;19.70;99.90;;;;;;5077440;28;20496;-83
2021/09/11 06:57:01;;;;;;;1999.90;999.90;;;19.70;99.90;;;;;;5076270;28;20441;-83
2021/09/11 06:59:27;;;;;;;1999.90;999.90;;;19.70;99.90;;;;;;5077430;28;20414;-84
2021/09/11 07:01:53;;;;;;;1999.90;999.90;;;19.70;99.90;;;;;;5077753;28;20767;-83
2021/09/11 07:04:18;;;;;;;1999.90;999.90;;;19.80;99.90;;;;;;5078059;28;20168;-84
2021/09/11 07:06:44;;;;;;;1999.90;999.90;;;19.80;99.90;;;;;;5075790;28;20192;-84
2021/09/11 07:09:10;;;;;;;1999.90;999.90;;;19.70;99.90;;;;;;5076021;28;20168;-84
2021/09/11 07:11:36;;;;;;;1999.90;999.90;;;19.80;99.90;;;;;;5077015;28;20201;-84
2021/09/11 07:14:01;;;;;;;1999.90;999.90;;;19.80;99.90;;;;;;5077090;28;20722;-84
2021/09/11 07:16:27;;;;;;;1999.90;999.90;;;19.80;99.90;;;;;;5076697;28;20675;-83
2021/09/11 07:18:53;;;;;;;1999.90;999.90;;;19.80;99.90;;;;;;5077796;28;20402;-84
2021/09/11 07:21:19;;;;;;;1999.90;999.90;;;19.70;99.90;;;;;;5077147;28;20163;-83
2021/09/11 07:23:44;;;;;;;1999.90;999.90;;;19.60;99.90;;;;;;5075732;28;20168;-84
2021/09/11 07:26:11;;;;;;;1999.90;999.90;;;19.60;99.90;;;;;;5076727;28;20678;-83
2021/09/11 07:28:37;;;;;;;1999.90;999.90;;;19.60;99.90;;;;;;5075762;28;20648;-83
2021/09/11 07:31:03;;;;;;;1999.90;999.90;;;19.60;99.90;;;;;;5075575;28;20485;-84
2021/09/11 07:33:29;;;;;;;1999.90;999.90;;;19.60;99.90;;;;;;5076286;28;20169;-84
2021/09/11 07:35:54;;;;;;;1999.90;999.90;;;19.50;99.90;;;;;;5078221;28;20709;-83
2021/09/11 07:38:20;;;;;;;1999.90;999.90;;;19.60;99.90;;;;;;5077200;28;20168;-83
2021/09/11 07:40:46;;;;;;;1999.90;999.90;;;19.60;99.90;;;;;;5078414;28;20628;-83
2021/09/11 07:43:12;;;;;;;1999.90;999.90;;;19.60;99.90;;;;;;5078349;28;20188;-84
2021/09/11 07:45:38;;;;;;;1999.90;999.90;;;19.70;99.90;;;;;;5079541;28;20407;-84
2021/09/11 07:48:06;;;;;;;1999.90;999.90;;;19.60;99.90;;;;;;5077267;28;20238;-83
2021/09/11 07:50:35;;;;;;;1999.90;999.90;;;19.60;99.90;;;;;;5076156;28;20938;-84
2021/09/11 07:53:02;;;;;;;1999.90;999.90;;;19.70;99.90;;;;;;5075459;28;20421;-84
2021/09/11 07:55:29;;;;;;;1999.90;999.90;;;19.60;99.90;;;;;;5075966;28;20445;-83
2021/09/11 07:57:54;;;;;;;1999.90;999.90;;;19.60;99.90;;;;;;5075454;28;20450;-84
2021/09/11 08:00:20;;;;;;;1999.90;999.90;;;19.60;99.90;;;;;;5077039;28;20414;-83
2021/09/11 08:02:46;;;;;;;1999.90;999.90;;;19.60;99.90;;;;;;5074609;28;20219;-84
2021/09/11 08:05:12;;;;;;;1999.90;999.90;;;19.70;99.90;;;;;;5076233;28;20508;-83
2021/09/11 08:07:37;;;;;;;1999.90;999.90;;;19.70;99.90;;;;;;5077529;28;20663;-83
2021/09/11 08:10:03;;;;;;;1999.90;999.90;;;19.70;99.90;;;;;;5077172;28;20406;-83
2021/09/11 08:12:29;;;;;;;1999.90;999.90;;;19.80;99.90;;;;;;5076839;28;20164;-84
2021/09/11 08:14:55;;;;;;;1999.90;999.90;;;19.80;99.90;;;;;;5075795;28;20446;-84
2021/09/11 08:17:21;;;;;;;1999.90;999.90;;;19.80;99.90;;;;;;5078062;28;20226;-84
2021/09/11 08:19:46;;;;;;;1999.90;999.90;;;19.90;99.90;;;;;;5077351;28;20397;-84
2021/09/11 08:22:12;;;;;;;1999.90;999.90;;;20.00;99.90;;;;;;5077108;28;20162;-84
2021/09/11 08:24:38;;;;;;;1999.90;999.90;;;20.20;99.90;;;;;;5077506;28;20217;-84
2021/09/11 08:27:03;;;;;;;1999.90;999.90;;;20.40;99.90;;;;;;5077701;28;20267;-84
2021/09/11 08:29:29;;;;;;;1999.90;999.90;;;20.40;99.90;;;;;;5077162;28;20172;-84
2021/09/11 08:31:55;;;;;;;1999.90;999.90;;;20.60;99.90;;;;;;5077619;28;20183;-84
2021/09/11 08:34:20;;;;;;;1999.90;999.90;;;20.60;99.90;;;;;;5077413;28;20270;-83
2021/09/11 08:36:46;;;;;;;1999.90;999.90;;;20.80;99.90;;;;;;5077551;28;20687;-84
2021/09/11 08:39:12;;;;;;;1999.90;999.90;;;20.90;99.90;;;;;;5075680;28;20636;-84
2021/09/11 08:41:39;;;;;;;1999.90;999.90;;;21.00;99.90;;;;;;5075780;28;20172;-84
2021/09/11 08:44:04;;;;;;;1999.90;999.90;;;21.10;99.90;;;;;;5076518;28;20167;-84
2021/09/11 08:46:32;;;;;;;1999.90;999.90;;;21.00;99.90;;;;;;5075827;28;20959;-83
2021/09/11 08:48:57;;;;;;;1999.90;999.90;;;21.00;99.90;;;;;;5077514;28;20610;-84
2021/09/11 08:51:23;;;;;;;1999.90;999.90;;;21.00;99.90;;;;;;5077538;28;20412;-83
2021/09/11 08:53:49;;;;;;;1999.90;999.90;;;21.10;99.90;;;;;;5075910;28;20171;-84
2021/09/11 08:56:15;;;;;;;1999.90;999.90;;;21.10;99.90;;;;;;5076857;28;20433;-84
2021/09/11 08:58:41;;;;;;;1999.90;999.90;;;21.10;99.90;;;;;;5077554;28;20399;-83
2021/09/11 09:01:08;;;;;;;1999.90;999.90;;;21.20;99.90;;;;;;5076604;28;20174;-83
2021/09/11 09:03:35;;;;;;;1999.90;999.90;;;21.20;99.90;;;;;;5075882;28;20637;-84
2021/09/11 09:06:22;;;;;;;1999.90;999.90;;;21.20;99.90;;;;;;5076238;28;20422;-84
2021/09/11 09:08:53;;;;;;;1999.90;999.90;;;21.20;99.90;;;;;;5076623;28;20419;-84
2021/09/11 09:11:31;;;;;;;1999.90;999.90;;;21.20;99.90;;;;;;5076188;28;20914;-83
2021/09/11 09:13:59;;;;;;;1999.90;999.90;;;21.10;99.90;;;;;;5076795;28;21045;-84
2021/09/11 09:16:31;;;;;;;1999.90;999.90;;;21.10;99.90;;;;;;5076899;28;20422;-83
2021/09/11 09:18:57;;;;;;;1999.90;999.90;;;21.10;99.90;;;;;;5076316;28;20441;-84
2021/09/11 09:21:31;;;;;;;1999.90;999.90;;;21.00;99.90;;;;;;5075922;28;20474;-83
2021/09/11 09:24:03;;;;;;;1999.90;999.90;;;21.00;99.90;;;;;;5077224;28;20384;-83
2021/09/11 09:26:29;;;;;;;1999.90;999.90;;;21.10;99.90;;;;;;5075463;28;20433;-84
2021/09/11 09:29:03;;;;;;;1999.90;999.90;;;21.20;99.90;;;;;;5076596;28;20403;-84
2021/09/11 09:31:30;;;;;;;1999.90;999.90;;;21.30;99.90;;;;;;5077479;28;20514;-83
2021/09/11 09:33:55;;;;;;;1999.90;999.90;;;21.40;99.90;;;;;;5076263;28;20473;-83
2021/09/11 09:36:21;;;;;;;1999.90;999.90;;;21.60;99.90;;;;;;5076504;28;20884;-83
2021/09/11 09:38:58;;;;;;;1999.90;999.90;;;21.70;99.90;;;;;;5076092;28;20159;-83
2021/09/11 09:41:24;;;;;;;1999.90;999.90;;;21.90;99.90;;;;;;5076805;28;20260;-83
2021/09/11 09:43:51;;;;;;;1999.90;999.90;;;21.90;99.90;;;;;;5076513;28;20408;-83
2021/09/11 09:46:19;;;;;;;1999.90;999.90;;;22.00;99.90;;;;;;5140346;23;21619;-86
2021/09/11 09:48:46;;;;;;;1999.90;999.90;;;21.90;99.90;;;;;;5073053;28;20438;-87
2021/09/11 09:51:27;;;;;;;1999.90;999.90;;;21.90;99.90;;;;;;5073726;28;20386;-87
2021/09/11 09:53:57;;;;;;;1999.90;999.90;;;21.80;99.90;;;;;;5072378;28;20402;-86
2021/09/11 09:56:23;;;;;;;1999.90;999.90;;;21.90;99.90;;;;;;5074023;28;20424;-86
2021/09/11 09:58:50;;;;;;;1999.90;999.90;;;21.80;99.90;;;;;;5072408;28;20397;-87
2021/09/11 10:01:23;;;;;;;1999.90;999.90;;;21.80;99.90;;;;;;5073566;28;20395;-86
2021/09/11 10:03:49;;;;;;;1999.90;999.90;;;21.70;99.90;;;;;;5072781;28;20432;-87
2021/09/11 10:06:30;;;;;;;1999.90;999.90;;;21.70;99.90;;;;;;5073218;28;20441;-86
2021/09/11 10:09:05;;;;;;;1999.90;999.90;;;21.80;99.90;;;;;;5073603;28;20900;-87
2021/09/11 10:11:37;;;;;;;1999.90;999.90;;;21.80;99.90;;;;;;5072518;28;20412;-86
2021/09/11 10:14:09;;;;;;;1999.90;999.90;;;21.90;99.90;;;;;;5072346;28;20464;-86
2021/09/11 10:16:40;;;;;;;1999.90;999.90;;;22.00;99.90;;;;;;5072152;28;20431;-86
2021/09/11 10:19:26;;;;;;;1999.90;999.90;;;22.10;99.90;;;;;;5073692;28;20393;-86
2021/09/11 10:22:04;;;;;;;1999.90;999.90;;;22.20;99.90;;;;;;5072099;28;20422;-86
2021/09/11 10:24:33;;;;;;;1999.90;999.90;;;22.30;99.90;;;;;;5076289;28;20391;-84
2021/09/11 10:27:19;;;;;;;1999.90;999.90;;;22.60;99.90;;;;;;5078349;28;20448;-84
2021/09/11 10:29:46;;;;;;;1999.90;999.90;;;22.70;99.90;;;;;;5079853;28;20387;-85
2021/09/11 10:32:18;;;;;;;1999.90;999.90;;;22.70;99.90;;;;;;5079073;28;20475;-86
2021/09/11 10:34:47;;;;;;;1999.90;999.90;;;22.80;99.90;;;;;;5078872;28;20442;-85
2021/09/11 10:37:28;;;;;;;1999.90;999.90;;;22.70;99.90;;;;;;5079286;28;20473;-85
2021/09/11 10:40:30;;;;;;;1999.90;999.90;;;22.60;99.90;;;;;;5080538;28;20386;-85
2021/09/11 10:43:03;;;;;;;1999.90;999.90;;;22.50;99.90;;;;;;5080650;28;20892;-85
2021/09/11 10:45:58;;;;;;;1999.90;999.90;;;22.50;99.90;;;;;;5080047;28;20535;-86
2021/09/11 10:48:43;;;;;;;1999.90;999.90;;;22.60;99.90;;;;;;5080427;28;20767;-86
2021/09/11 10:51:30;;;;;;;1999.90;999.90;;;22.80;99.90;;;;;;5079565;28;20429;-85
2021/09/11 10:54:04;;;;;;;1999.90;999.90;;;22.90;99.90;;;;;;5079286;28;20439;-85
2021/09/11 10:56:53;;;;;;;1999.90;999.90;;;23.00;99.90;;;;;;5079039;28;20429;-85
2021/09/11 10:59:18;;;;;;;1999.90;999.90;;;23.10;99.90;;;;;;5080597;28;20880;-85
2021/09/11 11:01:53;;;;;;;1999.90;999.90;;;23.10;99.90;;;;;;5078935;28;20536;-86
2021/09/11 11:04:30;;;;;;;1999.90;999.90;;;23.10;99.90;;;;;;5081168;28;20227;-86
2021/09/11 11:06:58;;;;;;;1999.90;999.90;;;23.10;99.90;;;;;;5079383;28;20437;-86
2021/09/11 11:09:25;;;;;;;1999.90;999.90;;;22.90;99.90;;;;;;5076348;28;20398;-87
2021/09/11 11:11:53;;;;;;;1999.90;999.90;;;22.80;99.90;;;;;;5076023;28;20453;-86
2021/09/11 11:14:19;;;;;;;1999.90;999.90;;;22.80;99.90;;;;;;5076236;28;20445;-86
2021/09/11 11:16:53;;;;;;;1999.90;999.90;;;22.80;99.90;;;;;;5075978;28;20418;-86
2021/09/11 11:19:24;;;;;;;1999.90;999.90;;;22.80;99.90;;;;;;5076292;28;20881;-86
2021/09/11 11:22:27;;;;;;;1999.90;999.90;;;22.80;99.90;;;;;;5078135;28;20417;-86
2021/09/11 11:24:56;;;;;;;1999.90;999.90;;;22.80;99.90;;;;;;5076022;28;20489;-87
2021/09/11 11:27:25;;;;;;;1999.90;999.90;;;22.70;99.90;;;;;;5077055;28;20422;-86
2021/09/11 11:29:52;;;;;;;1999.90;999.90;;;22.60;99.90;;;;;;5076917;28;20406;-86
2021/09/11 11:32:20;;;;;;;1999.90;999.90;;;22.40;99.90;;;;;;5077842;28;20426;-85
2021/09/11 11:34:49;;;;;;;1999.90;999.90;;;22.50;99.90;;;;;;5078484;28;20474;-86
2021/09/11 11:37:15;;;;;;;1999.90;999.90;;;22.60;99.90;;;;;;5077256;28;20426;-86
2021/09/11 11:39:43;;;;;;;1999.90;999.90;;;22.80;99.90;;;;;;5075888;28;20815;-86
2021/09/11 11:42:11;;;;;;;1999.90;999.90;;;22.90;99.90;;;;;;5075414;28;20448;-86
2021/09/11 11:44:43;;;;;;;1999.90;999.90;;;22.90;99.90;;;;;;5077018;28;20773;-86
2021/09/11 11:47:23;;;;;;;1999.90;999.90;;;23.00;99.90;;;;;;5076926;28;20446;-86
2021/09/11 11:49:49;;;;;;;1999.90;999.90;;;22.80;99.90;;;;;;5076601;28;20444;-86
2021/09/11 11:52:16;;;;;;;1999.90;999.90;;;23.00;99.90;;;;;;5076712;28;20406;-86
2021/09/11 11:54:46;;;;;;;1999.90;999.90;;;23.20;99.90;;;;;;5075524;28;20446;-86
2021/09/11 11:57:19;;;;;;;1999.90;999.90;;;23.20;99.00;;;;;;5076797;28;20941;-86
2021/09/11 11:59:55;;;;;;;1999.90;999.90;;;23.20;99.10;;;;;;5075693;28;20904;-86
2021/09/11 12:02:32;;;;;;;1999.90;999.90;;;23.30;99.90;;;;;;5075772;28;20403;-86
2021/09/11 12:05:23;;;;;;;1999.90;999.90;;;23.40;99.90;;;;;;5076143;28;20940;-86
2021/09/11 12:07:53;;;;;;;1999.90;999.90;;;23.50;96.40;;;;;;5077511;28;20510;-86